Time;durP1;ratioP1;P1;durP2;ratioP2;P2;SDS_P1;SDS_P2;PMS_P1;PMS_P2;Temp;Humidity;BMP_temperature;BMP_pressure;BME280_temperature;BME280_humidity;BME280_pressure;Samples;Min_cycle;Max_cycle;Signal;HPM_P1;HPM_P2
2022/10/20 00:01:31;;;;;;;35.50;20.48;;;;;;;10.45;100.00;99747.06;10539486;28;20047;-70
2022/10/20 00:06:33;;;;;;;39.55;19.60;;;;;;;10.03;100.00;99678.63;10538954;28;20401;-71
2022/10/20 00:11:34;;;;;;;160.18;21.75;;;;;;;10.44;100.00;99752.56;10538538;28;20635;-71
2022/10/20 00:16:37;;;;;;;170.20;21.08;;;;;;;10.28;100.00;99719.03;10538446;28;20123;-71
2022/10/20 00:21:37;;;;;;;31.15;17.17;;;;;;;10.55;100.00;99753.94;10537698;28;20036;-72
2022/10/20 00:26:38;;;;;;;151.38;19.77;;;;;;;10.35;100.00;99725.28;10538294;28;20036;-71
2022/10/20 00:31:39;;;;;;;349.63;23.33;;;;;;;10.50;100.00;99758.00;10537899;28;20043;-72
2022/10/20 00:36:40;;;;;;;157.95;14.38;;;;;;;10.07;100.00;99706.44;10537278;28;20123;-71
2022/10/20 00:41:41;;;;;;;251.38;16.17;;;;;;;10.21;100.00;99748.09;10536695;28;20047;-72
2022/10/20 00:46:42;;;;;;;70.47;16.42;;;;;;;10.31;100.00;99769.13;10537890;28;20044;-71
2022/10/20 00:51:43;;;;;;;61.03;16.50;;;;;;;10.37;100.00;99762.25;10537501;28;20040;-72
2022/10/20 00:56:47;;;;;;;68.65;14.52;;;;;;;10.32;100.00;99752.19;10537336;28;20126;-72
2022/10/20 01:01:48;;;;;;;86.68;14.98;;;;;;;10.39;100.00;99771.69;10537452;28;20048;-72
2022/10/20 01:06:49;;;;;;;49.05;14.02;;;;;;;10.43;100.00;99749.06;10537818;28;20063;-72
2022/10/20 01:12:16;;;;;;;115.55;16.80;;;;;;;10.22;100.00;99719.72;10537229;28;20043;-72
2022/10/20 01:17:28;;;;;;;205.95;17.08;;;;;;;10.39;100.00;99768.22;10537421;28;20491;-72
2022/10/20 01:22:50;;;;;;;71.93;14.90;;;;;;;9.81;100.00;99645.81;10536995;28;20548;-71
2022/10/20 01:28:16;;;;;;;133.07;15.23;;;;;;;10.46;100.00;99748.72;10537974;28;20126;-72
2022/10/20 01:33:23;;;;;;;41.22;14.45;;;;;;;10.45;100.00;99760.34;10528943;28;20036;-72
2022/10/20 01:38:39;;;;;;;73.30;17.35;;;;;;;9.93;100.00;99689.50;10537395;28;20489;-72
2022/10/20 01:43:42;;;;;;;70.45;16.38;;;;;;;10.40;100.00;99783.97;10536256;28;20128;-71
2022/10/20 01:48:45;;;;;;;81.55;14.60;;;;;;;10.27;100.00;99765.19;10537311;28;20479;-71
2022/10/20 01:53:46;;;;;;;40.65;13.88;;;;;;;10.32;100.00;99778.75;10543506;28;20119;-72
2022/10/20 01:59:14;;;;;;;53.70;14.32;;;;;;;9.97;100.00;99712.00;10543203;28;20104;-72
2022/10/20 02:04:19;;;;;;;84.82;14.40;;;;;;;10.18;100.00;99793.59;10542719;28;20052;-72
2022/10/20 02:09:32;;;;;;;20.65;13.98;;;;;;;10.06;100.00;99777.25;10544158;28;20850;-71
2022/10/20 02:14:35;;;;;;;27.42;14.95;;;;;;;10.24;100.00;99818.59;10543131;28;20093;-71
2022/10/20 02:19:39;;;;;;;29.08;14.82;;;;;;;9.48;100.00;99688.53;10543289;28;20055;-72
2022/10/20 02:24:42;;;;;;;17.85;14.20;;;;;;;9.48;100.00;99677.09;10542451;28;20032;-72
2022/10/20 02:29:52;;;;;;;21.80;16.45;;;;;;;10.24;100.00;99798.19;10541314;28;20403;-71
2022/10/20 02:34:53;;;;;;;20.15;16.35;;;;;;;10.11;100.00;99790.00;10540050;28;20492;-70
2022/10/20 02:39:53;;;;;;;18.92;15.50;;;;;;;9.52;100.00;99695.13;10541965;28;20044;-71
2022/10/20 02:44:54;;;;;;;18.25;14.38;;;;;;;9.99;100.00;99762.22;10541543;28;20511;-71
2022/10/20 02:49:55;;;;;;;18.55;13.25;;;;;;;10.11;100.00;99775.91;10543264;28;20043;-72
2022/10/20 02:54:56;;;;;;;18.85;13.43;;;;;;;9.69;100.00;99695.84;10541027;28;20070;-71
2022/10/20 02:59:57;;;;;;;24.55;14.45;;;;;;;9.90;100.00;99723.50;10540407;28;20411;-71
2022/10/20 03:05:18;;;;;;;25.25;14.50;;;;;;;9.04;100.00;99585.81;10533497;28;20120;-71
2022/10/20 03:10:19;;;;;;;19.63;14.10;;;;;;;9.83;100.00;99726.88;10541519;28;20069;-71
2022/10/20 03:15:19;;;;;;;27.75;14.32;;;;;;;9.90;100.00;99723.50;10540194;28;20526;-72
2022/10/20 03:20:20;;;;;;;25.33;12.73;;;;;;;10.01;100.00;99736.34;10540525;28;20042;-72
2022/10/20 03:25:21;;;;;;;24.65;14.57;;;;;;;9.60;100.00;99665.06;10536342;28;20101;-72
2022/10/20 03:30:21;;;;;;;30.75;15.95;;;;;;;8.62;100.00;99517.41;10535547;28;20097;-72
2022/10/20 03:35:22;;;;;;;22.25;15.50;;;;;;;9.92;100.00;99719.66;10540087;28;20044;-72
2022/10/20 03:40:23;;;;;;;31.90;17.40;;;;;;;9.86;100.00;99715.06;10539959;28;20479;-72
2022/10/20 03:45:24;;;;;;;29.67;17.52;;;;;;;10.01;100.00;99733.69;10539591;28;20048;-72
2022/10/20 03:50:25;;;;;;;20.70;16.15;;;;;;;10.27;100.00;99766.00;10539302;28;20064;-71
2022/10/20 03:55:25;;;;;;;21.75;17.33;;;;;;;10.30;100.00;99754.19;10518093;28;20491;-72
2022/10/20 04:00:26;;;;;;;23.55;16.80;;;;;;;10.52;100.00;99776.38;10536647;28;20052;-72
2022/10/20 04:05:27;;;;;;;21.60;15.60;;;;;;;9.88;100.00;99675.94;10536586;28;20060;-73
2022/10/20 04:10:28;;;;;;;25.90;18.02;;;;;;;10.61;100.00;99766.50;10535932;28;20040;-69
2022/10/20 04:15:30;;;;;;;19.90;16.20;;;;;;;10.66;100.00;99758.81;10534844;28;20044;-71
2022/10/20 04:20:30;;;;;;;19.27;15.48;;;;;;;10.03;100.00;99641.47;10536287;28;20040;-71
2022/10/20 04:25:31;;;;;;;18.38;15.23;;;;;;;10.19;100.00;99682.94;10534919;28;20128;-71
2022/10/20 04:30:32;;;;;;;20.55;12.60;;;;;;;9.93;100.00;99644.41;10534965;28;20036;-72
2022/10/20 04:35:33;;;;;;;16.88;14.30;;;;;;;10.37;100.00;99739.19;10545675;28;20040;-72
2022/10/20 04:40:34;;;;;;;20.17;13.93;;;;;;;9.91;100.00;99670.28;10535551;28;20139;-72
2022/10/20 04:45:35;;;;;;;15.07;12.43;;;;;;;11.03;100.00;99837.59;10537084;28;20122;-71
2022/10/20 04:50:36;;;;;;;15.68;13.10;;;;;;;10.54;100.00;99778.88;10535905;28;20040;-70
2022/10/20 04:55:37;;;;;;;16.17;12.85;;;;;;;10.27;100.00;99741.28;10533594;28;20032;-71
2022/10/20 05:00:38;;;;;;;21.10;12.20;;;;;;;10.24;100.00;99738.97;10534801;28;20040;-70
2022/10/20 05:05:39;;;;;;;17.05;11.05;;;;;;;10.44;100.00;99734.81;10536394;28;20491;-70
2022/10/20 05:10:39;;;;;;;17.42;11.13;;;;;;;9.49;100.00;99551.50;10535935;28;20138;-70
2022/10/20 05:15:40;;;;;;;14.55;11.90;;;;;;;10.79;100.00;99747.53;10537518;28;20161;-70
2022/10/20 05:20:41;;;;;;;12.65;11.23;;;;;;;10.06;100.00;99618.03;10534898;28;20491;-70
2022/10/20 05:25:42;;;;;;;11.95;10.65;;;;;;;10.78;100.00;99719.34;10539430;28;20389;-70
2022/10/20 05:30:42;;;;;;;13.75;9.93;;;;;;;11.90;100.00;99879.44;10543594;28;20036;-70
2022/10/20 05:35:43;;;;;;;14.90;9.80;;;;;;;11.68;100.00;99820.00;10543472;28;20031;-70
2022/10/20 05:40:44;;;;;;;17.40;10.23;;;;;;;10.23;100.00;99580.69;10544899;28;20051;-70
2022/10/20 05:45:45;;;;;;;11.02;8.98;;;;;;;11.34;100.00;99732.91;10543431;28;20043;-70
2022/10/20 05:50:45;;;;;;;13.80;10.35;;;;;;;11.86;100.00;99804.47;10542739;28;20036;-70
2022/10/20 05:55:46;;;;;;;12.23;9.55;;;;;;;11.21;100.00;99672.41;10543825;28;20596;-70
2022/10/20 06:00:51;;;;;;;14.75;8.50;;;;;;;12.66;100.00;99870.94;10544141;28;20043;-70
2022/10/20 06:05:57;;;;;;;11.45;9.32;;;;;;;11.96;100.00;99716.31;10559413;28;20516;-70
2022/10/20 06:11:07;;;;;;;13.90;8.50;;;;;;;13.02;100.00;99857.47;10559375;28;20044;-70
2022/10/20 06:16:11;;;;;;;10.20;8.52;;;;;;;12.32;100.00;99732.19;10541643;28;20039;-70
2022/10/20 06:21:22;;;;;;;10.75;7.95;;;;;;;13.19;100.00;99848.13;10542700;28;20040;-70
2022/10/20 06:26:24;;;;;;;14.52;8.80;;;;;;;11.79;100.00;99627.13;10541608;28;20584;-70
2022/10/20 06:31:27;;;;;;;13.80;9.15;;;;;;;11.53;100.00;99562.03;10542498;28;20042;-70
2022/10/20 06:36:28;;;;;;;18.77;9.20;;;;;;;13.02;100.00;99812.13;10541128;28;20135;-70
2022/10/20 06:41:29;;;;;;;13.98;9.27;;;;;;;12.62;100.00;99721.28;10541067;28;20130;-70
2022/10/20 06:46:34;;;;;;;13.80;8.93;;;;;;;12.99;100.00;99762.69;10541364;28;20529;-70
2022/10/20 06:51:34;;;;;;;;;;;;;;;13.73;100.00;99822.53;10542097;28;20032;-70
2022/10/20 06:56:36;;;;;;;10.27;9.02;;;;;;;13.60;100.00;99841.97;10539639;28;19916;-70
2022/10/20 07:01:38;;;;;;;12.23;8.85;;;;;;;13.80;100.00;99817.19;10540096;28;20047;-71
2022/10/20 07:06:41;;;;;;;11.10;7.70;;;;;;;13.62;100.00;99754.53;10540579;28;20062;-69
2022/10/20 07:11:43;;;;;;;9.97;8.83;;;;;;;14.02;100.00;99820.50;10541009;28;20051;-70
2022/10/20 07:16:44;;;;;;;12.55;9.40;;;;;;;13.70;100.00;99727.66;10539495;28;20044;-70
2022/10/20 07:21:45;;;;;;;11.88;8.25;;;;;;;14.12;100.00;99794.25;10539148;28;20040;-70
2022/10/20 07:26:45;;;;;;;10.48;8.02;;;;;;;12.92;100.00;99588.56;10556287;28;20488;-70
2022/10/20 07:31:47;;;;;;;10.30;7.95;;;;;;;13.96;100.00;99746.56;10538771;28;20036;-69
2022/10/20 07:36:48;;;;;;;9.98;7.57;;;;;;;14.30;100.00;99815.00;10539138;28;20066;-70
2022/10/20 07:41:49;;;;;;;13.82;7.50;;;;;;;13.26;100.00;99592.13;10537825;28;20043;-68
2022/10/20 07:46:50;;;;;;;10.40;7.80;;;;;;;13.76;100.00;99658.44;10537934;28;20127;-71
2022/10/20 07:51:51;;;;;;;10.60;7.50;;;;;;;14.77;100.00;99755.13;10538954;28;20146;-70
2022/10/20 07:56:52;;;;;;;10.02;7.38;;;;;;;13.51;100.00;99506.97;10539571;28;20048;-69
2022/10/20 08:01:53;;;;;;;11.65;7.50;;;;;;;14.85;100.00;99697.94;10554734;28;20446;-70
2022/10/20 08:06:53;;;;;;;10.82;6.97;;;;;;;15.39;100.00;99722.59;10539267;28;20531;-71
2022/10/20 08:11:54;;;;;;;15.82;7.90;;;;;;;15.27;100.00;99576.09;10539638;28;20573;-68
2022/10/20 08:16:55;;;;;;;15.38;7.32;;;;;;;16.01;97.37;99629.06;10538518;28;20094;-68
2022/10/20 08:21:56;;;;;;;12.38;8.98;;;;;;;15.43;94.26;99493.63;10536395;28;20189;-68
2022/10/20 08:26:56;;;;;;;16.48;10.23;;;;;;;15.75;92.55;99483.66;10538047;28;20403;-69
2022/10/20 08:31:57;;;;;;;18.00;12.93;;;;;;;16.99;90.71;99646.94;10538165;28;20061;-68
2022/10/20 08:36:59;;;;;;;24.20;14.45;;;;;;;16.12;88.56;99457.69;10538447;28;20148;-70
2022/10/20 08:42:01;;;;;;;21.77;15.45;;;;;;;17.30;85.26;99550.06;10536407;28;20067;-68
2022/10/20 08:47:13;;;;;;;20.25;14.40;;;;;;;17.39;84.25;99553.22;10537764;28;20097;-68
2022/10/20 08:52:14;;;;;;;18.33;14.10;;;;;;;17.10;84.63;99546.88;10537541;28;20036;-68
2022/10/20 08:57:26;;;;;;;20.58;14.10;;;;;;;17.19;83.52;99563.47;10536471;28;20032;-68
2022/10/20 09:02:31;;;;;;;21.90;15.25;;;;;;;17.21;84.58;99572.94;10542894;28;20044;-68
2022/10/20 09:07:35;;;;;;;24.05;15.35;;;;;;;18.15;84.23;99734.25;10546196;28;20071;-68
2022/10/20 09:12:39;;;;;;;21.80;13.13;;;;;;;18.33;84.40;99738.69;10545879;28;20047;-68
2022/10/20 09:17:43;;;;;;;21.60;13.15;;;;;;;18.70;82.37;99735.78;10544920;28;20044;-68
2022/10/20 09:22:46;;;;;;;18.90;12.63;;;;;;;18.70;82.67;99758.13;10545478;28;20032;-68
2022/10/20 09:27:48;;;;;;;17.08;12.90;;;;;;;17.74;82.55;99585.50;10544901;28;20057;-68
2022/10/20 09:32:49;;;;;;;20.25;13.40;;;;;;;18.88;83.19;99745.59;10543673;28;20131;-67
2022/10/20 09:38:16;;;;;;;20.00;14.48;;;;;;;19.16;81.35;99750.22;10543470;28;20150;-68
2022/10/20 09:43:17;;;;;;;18.60;14.18;;;;;;;18.26;83.09;99649.28;10541690;28;20522;-68
2022/10/20 09:48:28;;;;;;;20.05;14.88;;;;;;;18.22;82.38;99678.53;10543087;28;20035;-68
2022/10/20 09:53:34;;;;;;;18.63;14.65;;;;;;;18.55;83.80;99732.75;10544852;28;20396;-68
2022/10/20 09:58:37;;;;;;;23.02;14.85;;;;;;;17.57;84.79;99593.41;10543709;28;20048;-70
2022/10/20 10:03:46;;;;;;;19.75;15.48;;;;;;;18.23;86.29;99703.53;10560102;28;20040;-69
2022/10/20 10:08:47;;;;;;;21.77;14.90;;;;;;;18.13;87.17;99697.94;10541751;28;20134;-67
2022/10/20 10:13:50;;;;;;;17.20;14.45;;;;;;;17.76;87.79;99672.00;10542336;28;20496;-67
2022/10/20 10:19:01;;;;;;;25.40;15.93;;;;;;;17.70;89.57;99681.00;10543618;28;20055;-68
2022/10/20 10:24:03;;;;;;;23.65;14.85;;;;;;;17.64;90.24;99665.81;10541736;28;20036;-67
2022/10/20 10:29:14;;;;;;;23.40;14.93;;;;;;;17.91;89.71;99709.22;10541645;28;20061;-67
2022/10/20 10:34:15;;;;;;;18.70;13.80;;;;;;;18.13;89.82;99714.88;10542136;28;20116;-68
2022/10/20 10:39:16;;;;;;;21.40;14.95;;;;;;;18.08;90.85;99663.66;10540721;28;20139;-68
2022/10/20 10:44:26;;;;;;;17.80;11.90;;;;;;;17.73;90.83;99586.53;10543252;28;20040;-67
2022/10/20 10:49:57;;;;;;;14.30;10.80;;;;;;;17.94;90.41;99624.63;10541388;28;20036;-67
2022/10/20 10:55:39;;;;;;;10.55;9.05;;;;;;;18.32;90.17;99680.63;10541288;28;20116;-67
2022/10/20 11:01:26;;;;;;;15.68;12.00;;;;;;;17.26;89.56;99526.59;10506689;28;20064;-68
2022/10/20 11:06:43;;;;;;;19.45;14.90;;;;;;;17.91;91.56;99646.59;10536114;28;20052;-67
2022/10/20 11:12:25;;;;;;;18.73;13.95;;;;;;;18.07;90.30;99666.56;10540945;28;20063;-67
2022/10/20 11:17:57;;;;;;;19.77;14.43;;;;;;;18.04;88.10;99678.63;10540196;28;20055;-67
2022/10/20 11:23:26;;;;;;;23.17;15.95;;;;;;;18.43;89.53;99722.00;10539886;28;20036;-67
2022/10/20 11:28:35;;;;;;;23.65;14.65;;;;;;;18.42;88.12;99733.78;10540336;28;20040;-68
2022/10/20 11:33:44;;;;;;;14.85;12.35;;;;;;;17.71;87.52;99609.28;10539397;28;20457;-67
2022/10/20 11:38:48;;;;;;;16.83;11.77;;;;;;;17.91;87.55;99642.03;10538652;28;20130;-70
2022/10/20 11:44:18;;;;;;;14.68;10.85;;;;;;;18.45;87.39;99734.13;10539638;28;20032;-70
2022/10/20 11:49:18;;;;;;;19.58;12.07;;;;;;;16.95;87.94;99484.78;10534038;28;20079;-67
2022/10/20 11:54:58;;;;;;;15.90;11.88;;;;;;;18.45;86.85;99725.25;10537631;28;20064;-67
2022/10/20 12:00:47;;;;;;;15.75;10.10;;;;;;;18.41;86.08;99726.78;10538985;28;20150;-67
2022/10/20 12:05:59;;;;;;;16.85;9.88;;;;;;;18.34;87.62;99731.47;10501368;28;20055;-67
2022/10/20 12:11:25;;;;;;;14.10;9.43;;;;;;;18.27;88.42;99726.19;10539616;28;20044;-69
2022/10/20 12:17:04;;;;;;;15.63;7.97;;;;;;;17.85;88.74;99707.44;10534975;28;20097;-70
2022/10/20 12:22:25;;;;;;;7.82;6.15;;;;;;;17.86;88.66;99752.09;10520357;28;20465;-71
2022/10/20 12:27:27;;;;;;;8.88;6.93;;;;;;;17.55;89.65;99761.19;10536150;28;20071;-71
2022/10/20 12:32:27;;;;;;;12.52;7.20;;;;;;;17.38;90.95;99770.91;10528383;28;20090;-70
2022/10/20 12:37:36;;;;;;;11.50;7.22;;;;;;;17.00;91.78;99747.88;10515892;28;20084;-71
2022/10/20 12:42:45;;;;;;;9.13;7.50;;;;;;;17.08;92.17;99782.41;10531689;28;20403;-70
2022/10/20 12:47:58;;;;;;;19.95;11.32;;;;;;;16.61;93.93;99741.84;10529442;28;20044;-71
2022/10/20 12:53:16;;;;;;;29.98;26.75;;;;;;;16.91;97.82;99813.59;10536375;28;20040;-71
2022/10/20 12:58:16;;;;;;;13.38;10.48;;;;;;;16.73;96.70;99835.81;10537341;28;20510;-71
2022/10/20 13:03:49;;;;;;;11.50;8.57;;;;;;;16.65;100.00;99842.28;10537395;28;20040;-72
2022/10/20 13:09:02;;;;;;;7.72;6.40;;;;;;;16.01;100.00;99781.78;10537031;28;20522;-71
2022/10/20 13:14:12;;;;;;;9.25;5.95;;;;;;;15.81;100.00;99793.41;10537669;28;20040;-72
2022/10/20 13:19:23;;;;;;;10.98;6.90;;;;;;;15.86;100.00;99841.00;10536676;28;20442;-72
2022/10/20 13:24:30;;;;;;;10.45;7.95;;;;;;;15.48;100.00;99802.41;10536278;28;20496;-73
2022/10/20 13:29:37;;;;;;;13.20;9.25;;;;;;;15.91;100.00;99892.91;10535629;28;20044;-72
2022/10/20 13:34:49;;;;;;;17.38;10.13;;;;;;;15.45;100.00;99859.06;10537451;28;20044;-73
2022/10/20 13:40:09;;;;;;;16.98;11.23;;;;;;;15.51;100.00;99895.69;10535468;28;20040;-73
2022/10/20 13:45:47;;;;;;;15.35;10.43;;;;;;;15.61;100.00;99924.69;10531555;28;20032;-74
2022/10/20 13:50:55;;;;;;;12.55;8.27;;;;;;;15.17;100.00;99864.72;10539353;28;20123;-74
2022/10/20 13:55:58;;;;;;;10.00;7.13;;;;;;;15.31;100.00;99884.22;10541432;28;20498;-71
2022/10/20 14:01:02;;;;;;;10.73;5.60;;;;;;;15.11;100.00;99891.50;10543434;28;20047;-69
2022/10/20 14:06:03;;;;;;;;;;;;;;;15.11;100.00;99878.13;10544482;28;20385;-69
2022/10/20 14:11:05;;;;;;;15.38;6.78;;;;;;;14.90;100.00;99874.63;10543518;28;19927;-70
2022/10/20 14:16:22;;;;;;;11.82;6.10;;;;;;;14.91;100.00;99894.19;10544484;28;20094;-70
2022/10/20 14:21:27;;;;;;;9.80;6.03;;;;;;;14.34;100.00;99819.72;10543924;28;20388;-69
2022/10/20 14:26:29;;;;;;;11.10;6.20;;;;;;;14.50;100.00;99868.44;10543621;28;20377;-74
2022/10/20 14:31:30;;;;;;;10.30;7.78;;;;;;;14.24;100.00;99835.34;10543383;28;20036;-74
2022/10/20 14:36:31;;;;;;;14.35;9.02;;;;;;;14.19;100.00;99831.63;10540010;28;20036;-71
2022/10/20 14:41:34;;;;;;;12.70;7.38;;;;;;;14.71;100.00;99910.22;10514988;28;20065;-73
2022/10/20 14:46:38;;;;;;;12.00;7.47;;;;;;;14.10;100.00;99825.66;10536460;28;20055;-73
2022/10/20 14:51:43;;;;;;;9.60;6.75;;;;;;;14.68;100.00;99932.03;10535205;28;20051;-73
2022/10/20 14:56:58;;;;;;;15.13;7.60;;;;;;;14.75;100.00;99944.38;10538531;28;20036;-74
2022/10/20 15:02:18;;;;;;;8.43;6.53;;;;;;;14.66;100.00;99942.09;10533251;28;20050;-73
2022/10/20 15:07:22;;;;;;;10.68;7.20;;;;;;;14.15;100.00;99863.28;10541868;28;20142;-71
2022/10/20 15:12:41;;;;;;;10.40;7.72;;;;;;;14.64;100.00;99946.84;10540770;28;20032;-74
2022/10/20 15:17:47;;;;;;;9.48;7.00;;;;;;;14.61;100.00;99959.56;10540985;28;20535;-72
2022/10/20 15:22:48;;;;;;;12.18;8.75;;;;;;;14.53;100.00;99972.31;10540510;28;20036;-71
2022/10/20 15:27:49;;;;;;;10.23;7.43;;;;;;;14.47;100.00;99957.03;10540136;28;20042;-72
2022/10/20 15:32:51;;;;;;;12.15;7.53;;;;;;;14.29;100.00;99912.19;10539790;28;20032;-71
2022/10/20 15:37:52;;;;;;;12.63;7.57;;;;;;;14.35;100.00;99928.25;10540423;28;20461;-70
2022/10/20 15:42:53;;;;;;;17.33;11.07;;;;;;;13.55;100.00;99812.41;10539020;28;20036;-70
2022/10/20 15:47:54;;;;;;;12.82;8.25;;;;;;;14.42;100.00;99971.03;10539262;28;20048;-70
2022/10/20 15:52:55;;;;;;;13.02;8.02;;;;;;;14.51;100.00;99985.88;10540172;28;20043;-70
2022/10/20 15:57:56;;;;;;;14.30;9.23;;;;;;;14.42;100.00;99981.72;10539994;28;20044;-70
2022/10/20 16:02:57;;;;;;;17.83;8.80;;;;;;;14.38;100.00;99967.09;10537538;28;20131;-70
2022/10/20 16:07:57;;;;;;;15.25;10.10;;;;;;;14.43;100.00;99972.66;10538161;28;20067;-70
2022/10/20 16:12:58;;;;;;;16.80;9.23;;;;;;;14.45;100.00;99993.84;10510524;28;20051;-70
2022/10/20 16:17:59;;;;;;;13.73;9.85;;;;;;;14.35;100.00;99986.22;10538088;28;20035;-70
2022/10/20 16:23:00;;;;;;;9.10;7.47;;;;;;;13.97;100.00;99921.75;10538545;28;20542;-68
2022/10/20 16:28:00;;;;;;;17.42;9.48;;;;;;;13.86;100.00;99891.97;10537615;28;20522;-68
2022/10/20 16:33:02;;;;;;;15.52;9.38;;;;;;;14.26;100.00;99955.34;10538042;28;20444;-68
2022/10/20 16:38:02;;;;;;;14.52;9.23;;;;;;;13.87;100.00;99900.78;10537855;28;20074;-67
2022/10/20 16:43:03;;;;;;;11.68;8.63;;;;;;;14.41;100.00;99979.25;10537986;28;20440;-67
2022/10/20 16:48:04;;;;;;;11.55;7.80;;;;;;;14.39;100.00;99963.41;10536377;28;20047;-68
2022/10/20 16:53:05;;;;;;;17.55;8.90;;;;;;;14.36;100.00;99977.19;10537845;28;20058;-68
2022/10/20 16:58:05;;;;;;;13.45;8.50;;;;;;;14.26;100.00;99925.97;10537685;28;20043;-68
2022/10/20 17:03:06;;;;;;;12.60;7.57;;;;;;;14.25;100.00;99929.66;10536120;28;20128;-68
2022/10/20 17:08:07;;;;;;;9.98;7.40;;;;;;;14.09;100.00;99955.72;10538423;28;20071;-67
2022/10/20 17:13:09;;;;;;;14.60;8.50;;;;;;;14.18;100.00;99950.19;10536716;28;20032;-68
2022/10/20 17:18:09;;;;;;;15.00;8.27;;;;;;;14.19;100.00;99951.84;10537523;28;20070;-68
2022/10/20 17:23:10;;;;;;;13.15;7.57;;;;;;;14.21;100.00;99947.97;10543769;28;20138;-67
2022/10/20 17:28:11;;;;;;;11.68;7.43;;;;;;;14.23;100.00;99955.75;10544852;28;20047;-67
2022/10/20 17:33:12;;;;;;;10.30;7.70;;;;;;;14.21;100.00;99968.47;10545254;28;20517;-67
2022/10/20 17:38:13;;;;;;;11.18;7.57;;;;;;;14.21;100.00;99984.50;10545522;28;20064;-67
2022/10/20 17:43:15;;;;;;;9.48;7.25;;;;;;;14.21;100.00;99973.81;10544309;28;20048;-67
2022/10/20 17:48:15;;;;;;;15.00;7.47;;;;;;;13.62;100.00;99882.63;10544766;28;20036;-67
2022/10/20 17:53:16;;;;;;;9.45;6.88;;;;;;;14.13;100.00;99977.50;10544562;28;20044;-68
2022/10/20 17:58:17;;;;;;;10.38;7.10;;;;;;;14.11;100.00;99983.03;10544454;28;20036;-68
2022/10/20 18:03:18;;;;;;;11.50;7.60;;;;;;;14.19;100.00;99995.41;10544037;28;20530;-67
2022/10/20 18:08:19;;;;;;;8.07;6.43;;;;;;;14.16;100.00;99993.97;10544104;28;20476;-68
2022/10/20 18:13:19;;;;;;;9.98;7.30;;;;;;;14.19;100.00;99991.94;10544309;28;20043;-67
2022/10/20 18:18:20;;;;;;;10.38;7.50;;;;;;;14.15;100.00;100004.88;10544034;28;20496;-67
2022/10/20 18:23:21;;;;;;;12.75;8.02;;;;;;;14.06;100.00;100000.69;10543948;28;20043;-67
2022/10/20 18:28:23;;;;;;;11.70;8.27;;;;;;;13.92;100.00;99997.16;10543688;28;20043;-67
2022/10/20 18:33:24;;;;;;;11.75;8.35;;;;;;;13.92;100.00;99989.13;10541320;28;20403;-67
2022/10/20 18:38:25;;;;;;;13.98;9.52;;;;;;;14.07;100.00;100010.38;10542250;28;20044;-68
2022/10/20 18:43:26;;;;;;;11.88;8.30;;;;;;;13.98;100.00;100000.88;10541907;28;20426;-67
2022/10/20 18:48:27;;;;;;;12.65;8.10;;;;;;;13.98;100.00;100009.72;10541602;28;20130;-68
2022/10/20 18:53:29;;;;;;;15.02;9.02;;;;;;;13.90;100.00;100004.53;10541617;28;20542;-68
2022/10/20 18:58:32;;;;;;;10.50;8.10;;;;;;;13.92;100.00;100021.19;10541253;28;20399;-68
2022/10/20 19:03:33;;;;;;;12.88;8.98;;;;;;;14.01;100.00;100038.69;10541989;28;20050;-68
2022/10/20 19:08:36;;;;;;;12.27;8.15;;;;;;;13.97;100.00;100048.13;10541946;28;20059;-68
2022/10/20 19:13:37;;;;;;;11.75;8.77;;;;;;;13.73;100.00;100040.56;10539456;28;20552;-68
2022/10/20 19:18:41;;;;;;;10.13;5.60;;;;;;;13.51;100.00;100029.97;10540634;28;20075;-68
2022/10/20 19:23:45;;;;;;;6.40;4.83;;;;;;;13.16;100.00;99989.03;10539695;28;20036;-68
2022/10/20 19:28:47;;;;;;;;;;;;;;;13.69;100.00;100072.16;10541522;28;20032;-68
2022/10/20 19:33:50;;;;;;;6.25;4.88;;;;;;;13.45;100.00;100076.91;10536572;28;19911;-68
2022/10/20 19:38:51;;;;;;;5.87;4.93;;;;;;;13.43;100.00;100080.78;10535656;28;20044;-68
2022/10/20 19:43:52;;;;;;;6.28;5.03;;;;;;;13.35;100.00;100076.44;10539237;28;20139;-68
2022/10/20 19:48:53;;;;;;;6.20;4.18;;;;;;;13.03;100.00;100037.75;10539353;28;20165;-69
2022/10/20 19:53:54;;;;;;;7.18;5.20;;;;;;;13.25;100.00;100091.94;10540173;28;20043;-68
2022/10/20 19:58:54;;;;;;;7.57;5.57;;;;;;;13.16;100.00;100098.38;10538509;28;20047;-68
2022/10/20 20:03:55;;;;;;;10.98;5.15;;;;;;;13.00;100.00;100094.13;10539626;28;20040;-68
2022/10/20 20:08:59;;;;;;;6.85;5.50;;;;;;;12.53;100.00;100042.16;10538762;28;20403;-68
2022/10/20 20:14:07;;;;;;;9.90;5.72;;;;;;;12.51;100.00;100036.22;10539653;28;20467;-68
2022/10/20 20:19:08;;;;;;;9.20;5.43;;;;;;;12.92;100.00;100126.25;10539555;28;20047;-68
2022/10/20 20:24:11;;;;;;;11.70;6.07;;;;;;;12.79;100.00;100137.59;10537726;28;20120;-69
2022/10/20 20:29:13;;;;;;;9.95;6.13;;;;;;;11.85;100.00;100010.44;10532866;28;20488;-67
2022/10/20 20:34:14;;;;;;;8.48;6.13;;;;;;;12.58;100.00;100146.34;10538271;28;20042;-67
2022/10/20 20:39:15;;;;;;;6.93;5.40;;;;;;;12.52;100.00;100152.44;10538789;28;20104;-68
2022/10/20 20:44:16;;;;;;;10.25;5.63;;;;;;;12.53;100.00;100151.41;10537482;28;20109;-68
2022/10/20 20:49:17;;;;;;;9.30;5.70;;;;;;;12.44;100.00;100149.84;10538260;28;20039;-68
2022/10/20 20:54:18;;;;;;;8.77;5.95;;;;;;;12.37;100.00;100162.28;10537519;28;20036;-67
2022/10/20 20:59:18;;;;;;;9.80;7.10;;;;;;;12.21;100.00;100134.00;10537829;28;20093;-68
2022/10/20 21:04:20;;;;;;;11.10;7.00;;;;;;;12.15;100.00;100142.72;10537328;28;20086;-68
2022/10/20 21:09:20;;;;;;;10.82;7.60;;;;;;;12.24;100.00;100158.41;10536833;28;20101;-67
2022/10/20 21:14:21;;;;;;;13.60;7.32;;;;;;;12.08;100.00;100150.59;10537407;28;20044;-69
2022/10/20 21:19:22;;;;;;;12.10;7.25;;;;;;;12.15;100.00;100196.78;10536844;28;20044;-70
2022/10/20 21:24:25;;;;;;;8.32;6.70;;;;;;;12.10;100.00;100213.31;10535846;28;20554;-68
2022/10/20 21:29:26;;;;;;;12.15;6.45;;;;;;;11.95;100.00;100209.78;10536507;28;20496;-70
2022/10/20 21:34:27;;;;;;;11.18;6.47;;;;;;;11.78;100.00;100221.53;10536774;28;20040;-69
2022/10/20 21:39:27;;;;;;;12.73;6.75;;;;;;;11.61;100.00;100205.72;10536006;28;20040;-68
2022/10/20 21:44:28;;;;;;;9.80;6.00;;;;;;;11.43;100.00;100208.66;10536977;28;20051;-69
2022/10/20 21:49:29;;;;;;;9.95;6.45;;;;;;;11.39;100.00;100217.16;10536653;28;20040;-68
2022/10/20 21:54:30;;;;;;;6.45;4.40;;;;;;;11.12;100.00;100216.66;10536520;28;20047;-68
2022/10/20 21:59:31;;;;;;;8.60;4.10;;;;;;;10.96;100.00;100228.22;10535760;28;20040;-69
2022/10/20 22:04:31;;;;;;;8.25;4.20;;;;;;;10.97;100.00;100268.91;10536627;28;20060;-69
2022/10/20 22:09:32;;;;;;;8.90;3.33;;;;;;;10.46;100.00;100202.81;10541393;28;20377;-69
2022/10/20 22:14:33;;;;;;;10.32;3.63;;;;;;;10.38;100.00;100220.59;10543775;28;20434;-68
2022/10/20 22:19:34;;;;;;;7.60;2.95;;;;;;;10.69;100.00;100290.59;10541441;28;20102;-68
2022/10/20 22:24:34;;;;;;;5.72;2.47;;;;;;;10.54;99.86;100283.50;10542961;28;20031;-68
2022/10/20 22:29:35;;;;;;;5.22;2.67;;;;;;;10.59;99.58;100300.59;10543078;28;20574;-68
2022/10/20 22:34:36;;;;;;;5.88;2.92;;;;;;;10.61;99.90;100326.97;10542884;28;20510;-68
2022/10/20 22:39:37;;;;;;;6.05;2.90;;;;;;;10.26;99.30;100282.03;10542658;28;20097;-68
2022/10/20 22:44:38;;;;;;;8.07;2.40;;;;;;;10.43;99.11;100325.31;10542094;28;20062;-68
2022/10/20 22:49:38;;;;;;;9.65;2.55;;;;;;;9.95;98.71;100250.00;10543228;28;20044;-68
2022/10/20 22:54:39;;;;;;;3.47;1.80;;;;;;;10.50;97.88;100344.91;10541408;28;20039;-68
2022/10/20 22:59:40;;;;;;;5.18;1.83;;;;;;;10.44;96.68;100329.66;10542025;28;20126;-67
2022/10/20 23:04:41;;;;;;;3.50;1.77;;;;;;;9.90;94.44;100257.66;10540649;28;20117;-68